createdAt,value
2022-10-18T00:01:09.210Z,99743.44
2022-10-18T00:03:38.120Z,99738.53
2022-10-18T00:06:09.098Z,99747.59
2022-10-18T00:08:39.666Z,99738.53
2022-10-18T00:11:08.248Z,99739.91
2022-10-18T00:13:35.915Z,99750.06
2022-10-18T00:16:09.734Z,99747.19
2022-10-18T00:18:36.921Z,99748.41
2022-10-18T00:21:12.795Z,99755.94
2022-10-18T00:23:40.505Z,99761.41
2022-10-18T00:26:22.753Z,99752.88
2022-10-18T00:29:01.493Z,99757.09
2022-10-18T00:31:37.500Z,99751.63
2022-10-18T00:34:15.145Z,99756.81
2022-10-18T00:36:44.235Z,99755.22
2022-10-18T00:39:21.219Z,99756.78
2022-10-18T00:41:50.447Z,99759.03
2022-10-18T00:44:17.686Z,99755.13
2022-10-18T00:46:49.710Z,99746.59
2022-10-18T00:49:40.072Z,99759.38
2022-10-18T00:52:47.412Z,99759.75
2022-10-18T00:55:15.210Z,99752.94
2022-10-18T00:57:45.348Z,99764.13
2022-10-18T01:00:14.075Z,99761.44
2022-10-18T01:02:45.040Z,99760.16
2022-10-18T01:05:18.603Z,99762.47
2022-10-18T01:08:15.960Z,99750.81
2022-10-18T01:11:37.960Z,99761.25
2022-10-18T01:14:51.430Z,99769.63
2022-10-18T01:17:40.552Z,99758.75
2022-10-18T01:20:58.672Z,99762.56
2022-10-18T01:24:06.253Z,99763.59
2022-10-18T01:27:24.354Z,99752.06
2022-10-18T01:30:32.984Z,99752.38
2022-10-18T01:33:28.867Z,99750.84
2022-10-18T01:36:15.956Z,99750.84
2022-10-18T01:38:47.563Z,99755.00
2022-10-18T01:41:19.165Z,99759.97
2022-10-18T01:43:51.073Z,99766.88
2022-10-18T01:46:23.849Z,99760.06
2022-10-18T01:48:54.518Z,99754.09
2022-10-18T01:51:33.471Z,99752.94
2022-10-18T01:54:01.703Z,99752.91
2022-10-18T01:56:53.776Z,99753.22
2022-10-18T01:59:57.540Z,99749.47
2022-10-18T02:03:18.756Z,99748.06
2022-10-18T02:06:27.358Z,99727.97
2022-10-18T02:09:04.744Z,99734.84
2022-10-18T02:11:36.273Z,99732.88
2022-10-18T02:14:12.461Z,99741.06
2022-10-18T02:16:48.403Z,99734.06
2022-10-18T02:19:45.171Z,99740.84
2022-10-18T02:22:46.005Z,99738.13
2022-10-18T02:25:22.153Z,99741.34
2022-10-18T02:27:49.778Z,99743.75
2022-10-18T02:30:17.984Z,99732.31
2022-10-18T02:32:58.504Z,99731.53
2022-10-18T02:35:41.209Z,99734.31
2022-10-18T02:38:12.804Z,99733.25
2022-10-18T02:40:40.208Z,99729.34
2022-10-18T02:43:07.736Z,99729.19
2022-10-18T02:45:35.525Z,99720.06
2022-10-18T02:48:02.835Z,99728.63
2022-10-18T02:50:30.050Z,99729.94
2022-10-18T02:52:57.241Z,99738.69
2022-10-18T02:55:30.949Z,99732.31
2022-10-18T02:57:58.687Z,99739.03
2022-10-18T03:00:25.857Z,99725.34
2022-10-18T03:02:53.807Z,99740.06
2022-10-18T03:05:21.134Z,99738.41
2022-10-18T03:07:48.329Z,99731.66
2022-10-18T03:10:15.788Z,99731.03
2022-10-18T03:12:43.013Z,99730.41
2022-10-18T03:15:10.727Z,99734.41
2022-10-18T03:17:37.924Z,99729.34
2022-10-18T03:20:05.939Z,99737.00
2022-10-18T03:22:33.269Z,99736.72
2022-10-18T03:25:00.433Z,99736.16
2022-10-18T03:27:27.643Z,99734.63
2022-10-18T03:29:54.770Z,99727.91
2022-10-18T03:32:21.920Z,99735.91
2022-10-18T03:34:49.147Z,99733.16
2022-10-18T03:37:16.402Z,99741.50
2022-10-18T03:39:43.631Z,99731.88
2022-10-18T03:42:10.753Z,99725.91
2022-10-18T03:44:38.027Z,99728.56
2022-10-18T03:47:05.350Z,99727.22
2022-10-18T03:52:00.656Z,99720.13
2022-10-18T03:54:27.831Z,99722.47
2022-10-18T03:56:55.029Z,99723.09
2022-10-18T03:59:22.996Z,99721.50
2022-10-18T04:01:50.535Z,99718.03
2022-10-18T04:04:18.143Z,99722.09
2022-10-18T04:07:10.169Z,99720.34
2022-10-18T04:09:37.431Z,99722.19
2022-10-18T04:12:05.224Z,99727.16
2022-10-18T04:14:32.384Z,99736.59
2022-10-18T04:16:59.620Z,99723.56
2022-10-18T04:19:27.727Z,99734.28
2022-10-18T04:21:55.256Z,99730.13
2022-10-18T04:24:22.955Z,99742.19
2022-10-18T04:26:50.865Z,99735.25
2022-10-18T04:29:18.904Z,99736.66
2022-10-18T04:31:46.905Z,99736.81
2022-10-18T04:34:14.203Z,99737.88
2022-10-18T04:36:41.412Z,99743.78
2022-10-18T04:39:08.577Z,99742.19
2022-10-18T04:41:36.367Z,99744.03
2022-10-18T04:44:03.952Z,99751.59
2022-10-18T04:46:31.410Z,99747.38
2022-10-18T04:49:01.184Z,99749.78
2022-10-18T04:51:29.909Z,99750.34
2022-10-18T04:53:57.596Z,99754.63
2022-10-18T04:56:25.005Z,99744.25
2022-10-18T04:58:52.318Z,99752.28
2022-10-18T05:01:19.629Z,99753.56
2022-10-18T05:03:56.159Z,99758.34
2022-10-18T05:06:23.597Z,99752.09
2022-10-18T05:08:50.875Z,99757.88
2022-10-18T05:11:18.264Z,99751.88
2022-10-18T05:13:47.261Z,99751.72
2022-10-18T05:16:17.415Z,99746.47
2022-10-18T05:18:44.714Z,99749.72
2022-10-18T05:21:12.467Z,99745.28
2022-10-18T05:23:39.938Z,99745.50
2022-10-18T05:26:08.325Z,99738.84
2022-10-18T05:28:40.135Z,99725.34
2022-10-18T05:31:11.648Z,99743.91
2022-10-18T05:33:39.123Z,99739.91
2022-10-18T05:36:07.095Z,99741.63
2022-10-18T05:41:06.970Z,99746.91
2022-10-18T05:43:34.145Z,99741.94
2022-10-18T05:46:01.457Z,99736.31
2022-10-18T05:48:28.669Z,99749.63
2022-10-18T05:50:59.735Z,99757.41
2022-10-18T05:53:37.127Z,99744.22
2022-10-18T05:56:08.605Z,99738.75
2022-10-18T05:58:35.952Z,99739.41
2022-10-18T06:01:05.850Z,99739.00
2022-10-18T06:03:34.074Z,99750.91
2022-10-18T06:06:12.063Z,99746.53
2022-10-18T06:08:41.999Z,99749.75
2022-10-18T06:11:20.827Z,99739.72
2022-10-18T06:13:51.803Z,99737.31
2022-10-18T06:16:22.736Z,99742.00
2022-10-18T06:18:54.455Z,99754.22
2022-10-18T06:21:23.962Z,99747.50
2022-10-18T06:23:59.778Z,99749.19
2022-10-18T06:26:28.682Z,99748.47
2022-10-18T06:28:56.500Z,99747.00
2022-10-18T06:31:23.905Z,99743.31
2022-10-18T06:33:51.218Z,99755.91
2022-10-18T06:36:24.412Z,99764.84
2022-10-18T06:38:52.249Z,99759.19
2022-10-18T06:41:20.543Z,99769.34
2022-10-18T06:43:56.851Z,99760.03
2022-10-18T06:46:25.021Z,99762.91
2022-10-18T06:48:52.485Z,99763.69
2022-10-18T06:51:20.562Z,99765.31
2022-10-18T06:53:59.733Z,99769.28
2022-10-18T06:56:37.662Z,99766.25
2022-10-18T06:59:05.461Z,99776.63
2022-10-18T07:01:33.034Z,99770.75
2022-10-18T07:04:00.634Z,99781.72
2022-10-18T07:06:28.701Z,99779.72
2022-10-18T07:08:57.110Z,99779.19
2022-10-18T07:11:27.012Z,99782.28
2022-10-18T07:14:04.687Z,99785.41
2022-10-18T07:16:34.416Z,99784.81
2022-10-18T07:19:01.919Z,99785.94
2022-10-18T07:21:29.298Z,99788.22
2022-10-18T07:23:57.279Z,99780.31
2022-10-18T07:26:33.280Z,99773.00
2022-10-18T07:29:13.110Z,99778.91
2022-10-18T07:31:40.951Z,99774.97
2022-10-18T07:34:13.102Z,99790.16
2022-10-18T07:36:41.288Z,99790.16
2022-10-18T07:39:08.593Z,99784.81
2022-10-18T07:41:36.267Z,99784.75
2022-10-18T07:44:05.173Z,99797.59
2022-10-18T07:46:32.918Z,99774.38
2022-10-18T07:49:00.154Z,99790.63
2022-10-18T07:51:28.502Z,99785.13
2022-10-18T07:53:55.688Z,99790.94
2022-10-18T07:56:23.238Z,99782.28
2022-10-18T07:58:54.485Z,99777.31
2022-10-18T08:01:24.504Z,99783.56
2022-10-18T08:03:53.294Z,99784.44
2022-10-18T08:06:23.159Z,99787.38
2022-10-18T08:08:52.156Z,99781.97
2022-10-18T08:11:25.013Z,99778.88
2022-10-18T08:13:54.640Z,99789.19
2022-10-18T08:18:59.118Z,99790.59
2022-10-18T08:21:27.163Z,99792.59
2022-10-18T08:23:56.315Z,99793.59
2022-10-18T08:26:24.327Z,99797.81
2022-10-18T08:29:03.609Z,99803.56
2022-10-18T08:31:37.620Z,99814.91
2022-10-18T08:34:04.812Z,99811.38
2022-10-18T08:36:32.262Z,99810.56
2022-10-18T08:38:59.599Z,99810.69
2022-10-18T08:42:11.102Z,99810.69
2022-10-18T08:44:49.965Z,99811.00
2022-10-18T08:47:35.244Z,99807.66
2022-10-18T08:50:07.130Z,99799.28
2022-10-18T08:52:45.006Z,99806.44
2022-10-18T08:55:36.460Z,99801.13
2022-10-18T08:58:31.917Z,99806.84
2022-10-18T09:01:44.028Z,99807.56
2022-10-18T09:05:00.872Z,99812.41
2022-10-18T09:08:01.274Z,99814.34
2022-10-18T09:10:42.683Z,99808.03
2022-10-18T09:14:01.106Z,99803.56
2022-10-18T09:16:42.253Z,99801.53
2022-10-18T09:23:05.225Z,99808.16
2022-10-18T09:25:51.048Z,99805.25
2022-10-18T09:28:36.634Z,99800.22
2022-10-18T09:31:32.935Z,99803.72
2022-10-18T09:34:12.731Z,99809.13
2022-10-18T09:36:41.133Z,99807.84
2022-10-18T09:39:19.953Z,99807.13
2022-10-18T09:41:54.516Z,99806.03
2022-10-18T09:44:30.391Z,99804.72
2022-10-18T09:47:16.931Z,99810.41
2022-10-18T09:49:59.297Z,99813.19
2022-10-18T09:52:48.481Z,99818.97
2022-10-18T09:55:36.625Z,99815.47
2022-10-18T09:58:08.089Z,99809.56
2022-10-18T10:00:48.586Z,99811.28
2022-10-18T10:03:16.011Z,99811.41
2022-10-18T10:05:44.842Z,99816.72
2022-10-18T10:08:12.780Z,99812.19
2022-10-18T10:10:47.174Z,99812.00
2022-10-18T10:13:27.764Z,99804.59
2022-10-18T10:16:03.737Z,99810.44
2022-10-18T10:18:39.146Z,99823.25
2022-10-18T10:21:15.283Z,99818.00
2022-10-18T10:23:59.011Z,99813.16
2022-10-18T10:26:35.050Z,99815.00
2022-10-18T10:29:02.463Z,99813.44
2022-10-18T10:31:31.863Z,99809.81
2022-10-18T10:34:05.129Z,99814.16
2022-10-18T10:36:35.224Z,99820.59
2022-10-18T10:39:12.686Z,99818.47
2022-10-18T10:41:41.949Z,99808.59
2022-10-18T10:44:32.934Z,99810.63
2022-10-18T10:47:00.645Z,99814.09
2022-10-18T10:49:48.137Z,99808.06
2022-10-18T10:52:28.585Z,99808.47
2022-10-18T10:55:06.176Z,99802.66
2022-10-18T10:57:50.545Z,99808.97
2022-10-18T11:00:41.473Z,99811.00
2022-10-18T11:03:30.644Z,99812.19
2022-10-18T11:06:00.787Z,99812.59
2022-10-18T11:08:39.021Z,99810.78
2022-10-18T11:11:28.018Z,99801.94
2022-10-18T11:14:26.133Z,99791.78
2022-10-18T11:17:32.242Z,99801.28
2022-10-18T11:20:29.557Z,99788.81
2022-10-18T11:22:59.423Z,99792.19
2022-10-18T11:25:49.058Z,99777.28
2022-10-18T11:28:56.638Z,99782.78
2022-10-18T11:32:02.264Z,99770.88
2022-10-18T11:34:38.993Z,99780.81
2022-10-18T11:37:47.549Z,99787.28
2022-10-18T11:40:47.389Z,99778.25
2022-10-18T11:44:01.689Z,99778.03
2022-10-18T11:46:42.287Z,99777.03
2022-10-18T11:49:53.071Z,99789.25
2022-10-18T11:53:15.225Z,99786.28
2022-10-18T11:55:57.633Z,99780.84
2022-10-18T11:59:18.926Z,99777.91
2022-10-18T12:02:04.248Z,99779.88
2022-10-18T12:05:22.480Z,99779.28
2022-10-18T12:08:40.449Z,99779.38
2022-10-18T12:11:28.589Z,99770.91
2022-10-18T12:14:43.364Z,99773.81
2022-10-18T12:17:50.050Z,99760.78
2022-10-18T12:20:27.768Z,99768.88
2022-10-18T12:23:24.008Z,99767.53
2022-10-18T12:25:59.371Z,99757.59
2022-10-18T12:29:21.655Z,99754.13
2022-10-18T12:31:55.221Z,99760.44
2022-10-18T12:34:22.479Z,99754.44
2022-10-18T12:37:36.365Z,99752.44
2022-10-18T12:40:38.672Z,99747.97
2022-10-18T12:43:36.871Z,99735.00
2022-10-18T12:46:13.508Z,99741.22
2022-10-18T12:48:51.092Z,99736.41
2022-10-18T12:51:23.754Z,99738.94
2022-10-18T12:54:12.166Z,99736.25
2022-10-18T12:56:46.769Z,99737.72
2022-10-18T12:59:17.060Z,99740.25
2022-10-18T13:01:53.646Z,99738.25
2022-10-18T13:07:31.397Z,99730.88
2022-10-18T13:10:12.333Z,99724.47
2022-10-18T13:13:39.167Z,99731.97
2022-10-18T13:16:32.125Z,99726.38
2022-10-18T13:19:24.223Z,99734.56
2022-10-18T13:22:27.154Z,99740.41
2022-10-18T13:25:17.083Z,99735.28
2022-10-18T13:28:06.136Z,99742.19
2022-10-18T13:30:56.152Z,99740.75
2022-10-18T13:33:39.283Z,99744.06
2022-10-18T13:36:22.832Z,99739.16
2022-10-18T13:38:55.524Z,99735.97
2022-10-18T13:41:35.444Z,99731.81
2022-10-18T13:44:40.177Z,99738.25
2022-10-18T13:47:07.525Z,99736.47
2022-10-18T13:50:09.325Z,99726.78
2022-10-18T13:53:07.486Z,99728.56
2022-10-18T13:56:21.841Z,99740.09
2022-10-18T13:59:28.930Z,99722.88
2022-10-18T14:02:42.856Z,99739.41
2022-10-18T14:06:25.793Z,99744.75
2022-10-18T14:09:09.562Z,99739.50
2022-10-18T14:12:08.813Z,99751.63
2022-10-18T14:15:07.661Z,99747.09
2022-10-18T14:18:05.634Z,99740.31
2022-10-18T14:21:01.380Z,99740.22
2022-10-18T14:23:44.509Z,99736.50
2022-10-18T14:26:19.733Z,99745.03
2022-10-18T14:29:07.326Z,99741.38
2022-10-18T14:31:35.314Z,99752.31
2022-10-18T14:34:03.625Z,99755.31
2022-10-18T14:36:40.985Z,99750.94
2022-10-18T14:39:22.498Z,99747.59
2022-10-18T14:41:56.149Z,99764.19
2022-10-18T14:44:31.656Z,99762.84
2022-10-18T14:47:15.239Z,99751.28
2022-10-18T14:49:47.486Z,99750.28
2022-10-18T14:52:21.966Z,99758.81
2022-10-18T14:54:55.558Z,99755.63
2022-10-18T14:57:33.661Z,99757.69
2022-10-18T15:00:08.846Z,99757.03
2022-10-18T15:02:38.973Z,99755.56
2022-10-18T15:05:24.344Z,99755.81
2022-10-18T15:07:53.558Z,99756.13
2022-10-18T15:10:24.607Z,99756.16
2022-10-18T15:13:09.724Z,99755.63
2022-10-18T15:15:39.638Z,99749.31
2022-10-18T15:18:13.102Z,99748.00
2022-10-18T15:20:42.422Z,99751.63
2022-10-18T15:23:27.822Z,99757.53
2022-10-18T15:26:12.070Z,99748.34
2022-10-18T15:28:51.371Z,99752.59
2022-10-18T15:31:27.427Z,99757.09
2022-10-18T15:34:11.771Z,99752.31
2022-10-18T15:36:39.277Z,99761.13
2022-10-18T15:39:15.308Z,99764.88
2022-10-18T15:41:59.573Z,99753.22
2022-10-18T15:44:53.867Z,99756.84
2022-10-18T15:47:23.604Z,99758.09
2022-10-18T15:50:00.259Z,99763.69
2022-10-18T15:52:43.013Z,99761.75
2022-10-18T15:55:32.906Z,99760.72
2022-10-18T15:58:22.961Z,99756.16
2022-10-18T16:00:53.816Z,99752.81
2022-10-18T16:03:23.850Z,99754.72
2022-10-18T16:06:06.378Z,99750.72
2022-10-18T16:08:44.291Z,99754.41
2022-10-18T16:11:23.964Z,99763.13
2022-10-18T16:13:56.381Z,99766.94
2022-10-18T16:16:29.508Z,99761.88
2022-10-18T16:18:57.960Z,99773.75
2022-10-18T16:21:37.520Z,99769.38
2022-10-18T16:24:06.295Z,99763.66
2022-10-18T16:26:35.236Z,99769.66
2022-10-18T16:29:02.791Z,99771.53
2022-10-18T16:31:34.938Z,99768.53
2022-10-18T16:34:02.574Z,99759.09
2022-10-18T16:36:33.529Z,99762.25
2022-10-18T16:39:07.740Z,99767.69
2022-10-18T16:41:35.190Z,99771.88
2022-10-18T16:44:02.295Z,99773.34
2022-10-18T16:46:34.200Z,99781.22
2022-10-18T16:51:54.442Z,99787.41
2022-10-18T16:54:23.561Z,99786.03
2022-10-18T16:56:51.196Z,99788.50
2022-10-18T16:59:28.878Z,99793.63
2022-10-18T17:01:56.474Z,99791.69
2022-10-18T17:04:23.802Z,99802.16
2022-10-18T17:06:54.742Z,99799.03
2022-10-18T17:09:22.130Z,99796.66
2022-10-18T17:11:49.774Z,99804.09
2022-10-18T17:14:16.937Z,99815.34
2022-10-18T17:16:46.643Z,99811.28
2022-10-18T17:19:18.046Z,99808.38
2022-10-18T17:21:45.331Z,99810.41
2022-10-18T17:24:12.581Z,99817.31
2022-10-18T17:26:39.768Z,99816.00
2022-10-18T17:29:08.373Z,99818.31
2022-10-18T17:31:36.052Z,99815.78
2022-10-18T17:34:04.248Z,99820.50
2022-10-18T17:36:33.237Z,99821.72
2022-10-18T17:39:00.770Z,99818.09
2022-10-18T17:41:28.574Z,99824.13
2022-10-18T17:43:56.434Z,99825.34
2022-10-18T17:46:42.501Z,99823.72
2022-10-18T17:49:10.483Z,99822.50
2022-10-18T17:51:37.645Z,99826.16
2022-10-18T17:54:05.894Z,99831.50
2022-10-18T17:56:35.912Z,99822.91
2022-10-18T17:59:03.599Z,99829.50
2022-10-18T18:01:31.030Z,99839.13
2022-10-18T18:04:02.254Z,99846.47
2022-10-18T18:06:35.828Z,99844.72
2022-10-18T18:09:12.766Z,99842.00
2022-10-18T18:11:44.304Z,99849.94
2022-10-18T18:14:13.448Z,99840.50
2022-10-18T18:16:45.721Z,99838.50
2022-10-18T18:19:15.143Z,99847.38
2022-10-18T18:21:43.109Z,99845.94
2022-10-18T18:24:10.765Z,99845.94
2022-10-18T18:26:39.823Z,99846.81
2022-10-18T18:29:07.681Z,99841.72
2022-10-18T18:31:38.863Z,99840.88
2022-10-18T18:34:10.722Z,99831.25
2022-10-18T18:36:39.047Z,99834.88
2022-10-18T18:39:07.325Z,99835.81
2022-10-18T18:41:35.183Z,99835.06
2022-10-18T18:44:06.127Z,99834.72
2022-10-18T18:46:40.969Z,99831.47
2022-10-18T18:49:10.065Z,99835.94
2022-10-18T18:51:39.642Z,99827.16
2022-10-18T18:54:13.801Z,99823.56
2022-10-18T18:56:42.781Z,99837.16
2022-10-18T18:59:14.542Z,99834.34
2022-10-18T19:01:42.947Z,99839.53
2022-10-18T19:04:10.853Z,99828.31
2022-10-18T19:06:45.125Z,99838.56
2022-10-18T19:09:22.062Z,99834.41
2022-10-18T19:11:53.008Z,99835.31
2022-10-18T19:17:01.570Z,99837.72
2022-10-18T19:19:31.149Z,99829.56
2022-10-18T19:22:08.307Z,99827.88
2022-10-18T19:24:35.661Z,99835.78
2022-10-18T19:27:11.729Z,99827.63
2022-10-18T19:29:41.384Z,99829.25
2022-10-18T19:32:12.226Z,99826.75
2022-10-18T19:34:41.350Z,99838.59
2022-10-18T19:37:12.499Z,99828.16
2022-10-18T19:39:39.974Z,99835.22
2022-10-18T19:42:17.479Z,99834.81
2022-10-18T19:44:49.629Z,99842.38
2022-10-18T19:47:16.792Z,99833.38
2022-10-18T19:49:44.182Z,99837.56
2022-10-18T19:52:12.364Z,99828.28
2022-10-18T19:54:42.644Z,99838.66
2022-10-18T19:57:09.790Z,99828.50
2022-10-18T19:59:37.127Z,99833.66
2022-10-18T20:02:04.749Z,99834.69
2022-10-18T20:04:34.786Z,99839.53
2022-10-18T20:07:02.831Z,99833.06
2022-10-18T20:09:30.558Z,99849.28
2022-10-18T20:11:57.715Z,99841.38
2022-10-18T20:14:25.195Z,99846.53
2022-10-18T20:16:52.441Z,99835.13
2022-10-18T20:19:19.595Z,99837.31
2022-10-18T20:21:46.767Z,99832.81
2022-10-18T20:24:13.966Z,99845.13
2022-10-18T20:26:41.286Z,99853.00
2022-10-18T20:29:08.635Z,99853.88
2022-10-18T20:31:38.862Z,99854.75
2022-10-18T20:34:11.951Z,99849.97
2022-10-18T20:36:40.249Z,99850.16
2022-10-18T20:39:07.973Z,99849.69
2022-10-18T20:41:43.278Z,99850.75
2022-10-18T20:44:19.196Z,99843.59
2022-10-18T20:46:46.954Z,99837.22
2022-10-18T20:49:19.293Z,99845.72
2022-10-18T20:51:46.566Z,99839.94
2022-10-18T20:54:13.782Z,99842.88
2022-10-18T20:56:41.274Z,99848.25
2022-10-18T20:59:10.113Z,99843.47
2022-10-18T21:01:39.132Z,99845.19
2022-10-18T21:04:09.714Z,99836.59
2022-10-18T21:06:43.864Z,99830.13
2022-10-18T21:09:19.629Z,99828.47
2022-10-18T21:11:50.826Z,99823.63
2022-10-18T21:14:22.905Z,99835.78
2022-10-18T21:16:52.673Z,99819.72
2022-10-18T21:19:26.709Z,99836.81
2022-10-18T21:21:57.363Z,99834.44
2022-10-18T21:24:26.387Z,99833.84
2022-10-18T21:26:54.573Z,99832.72
2022-10-18T21:29:24.431Z,99829.09
2022-10-18T21:31:57.987Z,99830.50
2022-10-18T21:34:26.505Z,99821.59
2022-10-18T21:36:53.916Z,99824.13
2022-10-18T21:41:56.031Z,99826.16
2022-10-18T21:44:23.299Z,99827.34
2022-10-18T21:46:50.685Z,99823.28
2022-10-18T21:49:18.106Z,99824.63
2022-10-18T21:51:45.254Z,99819.41
2022-10-18T21:54:16.089Z,99817.28
2022-10-18T21:56:44.401Z,99812.00
2022-10-18T21:59:13.486Z,99809.69
2022-10-18T22:01:43.562Z,99806.78
2022-10-18T22:04:22.303Z,99805.69
2022-10-18T22:06:50.350Z,99804.72
2022-10-18T22:09:18.314Z,99788.59
2022-10-18T22:11:51.508Z,99799.69
2022-10-18T22:14:19.215Z,99795.78
2022-10-18T22:16:46.424Z,99798.97
2022-10-18T22:19:13.797Z,99802.13
2022-10-18T22:21:40.935Z,99799.56
2022-10-18T22:24:09.971Z,99795.31
2022-10-18T22:26:41.751Z,99801.19
2022-10-18T22:29:18.043Z,99797.53
2022-10-18T22:31:50.053Z,99799.72
2022-10-18T22:34:27.604Z,99797.69
2022-10-18T22:36:56.250Z,99799.72
2022-10-18T22:39:24.511Z,99805.06
2022-10-18T22:41:55.725Z,99795.56
2022-10-18T22:44:23.426Z,99803.34
2022-10-18T22:46:50.560Z,99801.03
2022-10-18T22:49:17.701Z,99800.81
2022-10-18T22:51:44.978Z,99805.47
2022-10-18T22:54:12.190Z,99798.31
2022-10-18T22:56:39.447Z,99802.34
2022-10-18T22:59:06.679Z,99799.81
2022-10-18T23:01:33.878Z,99797.69
2022-10-18T23:04:03.441Z,99781.56
2022-10-18T23:06:36.298Z,99784.84
2022-10-18T23:09:08.657Z,99793.16
2022-10-18T23:11:37.833Z,99788.84
2022-10-18T23:14:07.370Z,99788.16
2022-10-18T23:16:35.272Z,99788.34
2022-10-18T23:19:03.386Z,99782.72
2022-10-18T23:21:30.667Z,99782.88
2022-10-18T23:23:57.878Z,99773.88
2022-10-18T23:26:28.025Z,99769.22
2022-10-18T23:28:55.873Z,99759.41
2022-10-18T23:31:27.322Z,99772.28
2022-10-18T23:33:58.634Z,99774.44
2022-10-18T23:36:27.119Z,99777.72
2022-10-18T23:38:55.477Z,99775.03
2022-10-18T23:41:24.921Z,99777.09
2022-10-18T23:43:52.669Z,99782.69
2022-10-18T23:46:20.432Z,99769.81
2022-10-18T23:48:49.891Z,99768.75
2022-10-18T23:51:18.216Z,99769.22
2022-10-18T23:53:45.573Z,99776.19
2022-10-18T23:56:16.353Z,99763.97
2022-10-18T23:58:45.893Z,99773.72
